Seabourn Pride — C6FR5 — position and weather

sailwx.info

Track history (hours):
 
Tides and Currents Weather Stations Pressure Air Temp Water Temp Dewpoint Dewpoint Depression Visibility Wind Speed Wind Dir Waves Ship Positions

Seabourn Pride

Operator: Cunard Seabourn

Last reported at 2019-Jun-16 23:30 UTC. Time now 2019-Jun-17 19:32 UTC.
Position N 43°48' W 003°16'.

Length 134 m; draft 5.6 m.

Type: Ship. MMSI: 311084000.

Date/timePositionNaut miles runAvg speedWind from/ knotsBaromVisibWave heightAir tempDewpointWater temp
2019-Jun-16 23:30N 43°48' W 003°16'612.6
2019-Jun-16 23:00N 43°42' W 003°13'612.1
2019-Jun-16 22:30N 43°36' W 003°11'612.1
2019-Jun-16 22:00N 43°30' W 003°09'612.6
2019-Jun-16 21:30N 43°24' W 003°06'5 9.1
2019-Jun-16 21:00N 43°21' W 003°02'1 1.1
2019-Jun-16 20:30N 43°20' W 003°01'0 0.0
2019-Jun-16 20:00N 43°20' W 003°01'0 0.0
2019-Jun-16 19:30N 43°20' W 003°01'0 0.0
2019-Jun-16 19:00N 43°20' W 003°01'0 0.0
2019-Jun-16 18:30N 43°20' W 003°01'0 0.0
2019-Jun-16 18:00N 43°20' W 003°01'0 0.0
2019-Jun-16 17:30N 43°20' W 003°01'0 0.0
2019-Jun-16 17:00N 43°20' W 003°01'0 0.0
2019-Jun-16 16:30N 43°20' W 003°01'0 0.0
2019-Jun-16 16:00N 43°20' W 003°01'0 0.0
2019-Jun-16 15:30N 43°20' W 003°01'0 0.0
2019-Jun-16 15:00N 43°20' W 003°01'0 0.0
2019-Jun-16 14:30N 43°20' W 003°01'0 0.0
2019-Jun-16 14:00N 43°20' W 003°01'0 0.0
2019-Jun-16 13:30N 43°20' W 003°01'0 0.0
2019-Jun-16 13:00N 43°20' W 003°01'0 0.0
2019-Jun-16 12:30N 43°20' W 003°01'0 0.0
2019-Jun-16 12:00N 43°20' W 003°01'0 0.0
2019-Jun-16 11:30N 43°20' W 003°01'0 0.0
2019-Jun-16 11:00N 43°20' W 003°01'0 0.0
2019-Jun-16 10:30N 43°20' W 003°01'0 0.0
2019-Jun-16 10:01N 43°20' W 003°01'0 0.0
2019-Jun-16 09:31N 43°20' W 003°01'0 0.0
2019-Jun-16 09:01N 43°20' W 003°01'0 0.0
2019-Jun-16 08:31N 43°20' W 003°01'0 0.0
2019-Jun-16 08:01N 43°20' W 003°01'0 0.0
2019-Jun-16 07:31N 43°20' W 003°01'0 0.0
2019-Jun-16 07:01N 43°20' W 003°01'0 0.0
2019-Jun-16 06:31N 43°20' W 003°01'0 0.0
2019-Jun-16 06:01N 43°20' W 003°01'0 0.6
2019-Jun-16 05:30N 43°20' W 003°02'4 7.6
2019-Jun-16 05:00N 43°23' W 003°05'5 9.9
2019-Jun-16 04:30N 43°27' W 003°10'4 8.0
2019-Jun-16 04:00N 43°30' W 003°14'4 7.8
2019-Jun-16 03:30N 43°33' W 003°17'3 6.9
2019-Jun-16 03:00N 43°35' W 003°21'4 8.3
2019-Jun-16 02:30N 43°35' W 003°27'4 8.9
2019-Jun-16 02:00N 43°35' W 003°33'4 9.0
2019-Jun-16 01:30N 43°36' W 003°39'5 9.2
2019-Jun-16 01:00N 43°36' W 003°45'5 9.4
2019-Jun-16 00:31N 43°36' W 003°52'5 9.3
2019-Jun-16 00:00N 43°37' W 003°58'5 9.4
2019-Jun-15 23:30N 43°37' W 004°05'5 9.3
2019-Jun-15 23:00N 43°37' W 004°11'5 9.4
2019-Jun-15 22:30N 43°37' W 004°17'32 9.6
2019-Jun-15 19:12N 43°38' W 005°02'2 9.8
2019-Jun-15 19:00N 43°38' W 005°04'510.0
2019-Jun-15 18:28N 43°38' W 005°11'5 9.7
2019-Jun-15 17:54N 43°38' W 005°19'4 9.6
2019-Jun-15 17:30N 43°38' W 005°24'5 9.7
2019-Jun-15 17:00N 43°37' W 005°31'5 9.6
2019-Jun-15 16:30N 43°35' W 005°37'4 7.6
2019-Jun-15 16:00N 43°34' W 005°42'0 0.0
2019-Jun-15 15:30N 43°34' W 005°42'0 0.0
2019-Jun-15 15:00N 43°34' W 005°42'0 0.0
2019-Jun-15 14:30N 43°34' W 005°42'0 0.0
2019-Jun-15 13:50N 43°34' W 005°42'0 0.0
2019-Jun-15 13:30N 43°34' W 005°42'0 0.0
2019-Jun-15 13:00N 43°34' W 005°42'0 0.0
2019-Jun-15 12:27N 43°34' W 005°42'0 0.0
2019-Jun-15 12:00N 43°34' W 005°42'0 0.0
2019-Jun-15 11:30N 43°34' W 005°42'0 0.0
2019-Jun-15 11:00N 43°34' W 005°42'0 0.0
2019-Jun-15 10:30N 43°34' W 005°42'0 0.0
2019-Jun-15 09:58N 43°34' W 005°42'0 0.0
2019-Jun-15 09:30N 43°34' W 005°42'0 0.0
2019-Jun-15 08:56N 43°34' W 005°42'0 0.0
2019-Jun-15 08:27N 43°34' W 005°42'0 0.0
2019-Jun-15 07:46N 43°34' W 005°42'0 0.0
2019-Jun-15 07:28N 43°34' W 005°42'0 0.0
2019-Jun-15 06:56N 43°34' W 005°42'0 0.2
2019-Jun-15 06:30N 43°34' W 005°42'4 7.0
2019-Jun-15 05:59N 43°36' W 005°38'4 9.0
2019-Jun-15 05:30N 43°40' W 005°39'4 8.3
2019-Jun-15 05:00N 43°44' W 005°40'610.5
2019-Jun-15 04:28N 43°48' W 005°46'510.6
2019-Jun-15 04:00N 43°51' W 005°51'510.6
2019-Jun-15 03:30N 43°52' W 005°58'202 5.5
2019-Jun-13 14:48N 41°12' W 008°46'311.5
2019-Jun-13 14:31N 41°10' W 008°43'2 3.4
2019-Jun-13 14:00N 41°11' W 008°42'0 0.0
2019-Jun-13 13:28N 41°11' W 008°42'0 0.0
2019-Jun-13 12:58N 41°11' W 008°42'0 0.0
2019-Jun-13 12:27N 41°11' W 008°42'0 0.0
2019-Jun-13 11:57N 41°11' W 008°42'0 0.0
2019-Jun-13 11:30N 41°11' W 008°42'0 0.0
2019-Jun-13 10:57N 41°11' W 008°42'0 0.0
2019-Jun-13 10:28N 41°11' W 008°42'0 0.0
2019-Jun-13 09:59N 41°11' W 008°42'0 0.0
2019-Jun-13 09:30N 41°11' W 008°42'0 0.0
2019-Jun-13 08:59N 41°11' W 008°42'0 0.0
2019-Jun-13 08:30N 41°11' W 008°42'0 0.0
2019-Jun-13 08:00N 41°11' W 008°42'0 0.3
2019-Jun-13 07:30N 41°11' W 008°42'2 4.4
2019-Jun-13 07:00N 41°09' W 008°43'12011.5
2019-Jun-12 20:38N 39°19' W 009°45'212.1
2019-Jun-12 20:28N 39°17' W 009°45'612.0
2019-Jun-12 20:00N 39°12' W 009°44'611.8
2019-Jun-12 19:30N 39°06' W 009°44'612.1
2019-Jun-12 19:00N 38°60' W 009°43'611.9
2019-Jun-12 18:30N 38°54' W 009°43'713.4
2019-Jun-12 18:00N 38°47' W 009°42'713.2
2019-Jun-12 17:30N 38°41' W 009°42'510.6
2019-Jun-12 17:00N 38°37' W 009°37'714.6
2019-Jun-12 16:30N 38°36' W 009°28'815.1
2019-Jun-12 16:00N 38°40' W 009°19'713.3
2019-Jun-12 15:30N 38°41' W 009°11'3 6.3
2019-Jun-12 15:00N 38°43' W 009°07'0 0.0
2019-Jun-12 14:30N 38°43' W 009°07'0 0.0
2019-Jun-12 13:59N 38°43' W 009°07'0 0.0
2019-Jun-12 13:29N 38°43' W 009°07'0 0.0
2019-Jun-12 12:56N 38°43' W 009°07'0 0.0
2019-Jun-12 12:30N 38°43' W 009°07'0 0.0
2019-Jun-12 12:00N 38°43' W 009°07'0 0.0
2019-Jun-12 11:30N 38°43' W 009°07'0 0.0
2019-Jun-12 10:59N 38°43' W 009°07'0 0.0
2019-Jun-12 10:30N 38°43' W 009°07'0 0.0
2019-Jun-12 09:59N 38°43' W 009°07'0 0.0
2019-Jun-12 09:28N 38°43' W 009°07'0 0.0
2019-Jun-12 08:58N 38°43' W 009°07'0 0.0
2019-Jun-12 08:30N 38°43' W 009°07'0 0.0
2019-Jun-12 08:00N 38°43' W 009°07'0 0.0
2019-Jun-12 07:30N 38°43' W 009°07'0 0.0
2019-Jun-12 07:00N 38°43' W 009°07'0 0.0
2019-Jun-12 06:29N 38°43' W 009°07'0 0.0
2019-Jun-12 06:01N 38°43' W 009°07'0 0.3
2019-Jun-12 05:30N 38°43' W 009°07'5 9.7
2019-Jun-12 05:00N 38°41' W 009°13'4 7.6
2019-Jun-12 04:30N 38°41' W 009°18'4 8.0
2019-Jun-12 04:00N 38°38' W 009°21'4 8.8
2019-Jun-12 03:30N 38°33' W 009°21'4 8.7
2019-Jun-12 03:00N 38°29' W 009°21'9 8.8
2019-Jun-12 02:00N 38°22' W 009°15'510.2
2019-Jun-12 01:30N 38°19' W 009°09'611.3
2019-Jun-12 01:00N 38°16' W 009°03'611.5
2019-Jun-12 00:31N 38°10' W 009°03'612.8
2019-Jun-12 00:00N 38°04' W 009°03'612.3
2019-Jun-11 23:31N 37°57' W 009°03'612.0
2019-Jun-11 23:01N 37°51' W 009°03'611.8
2019-Jun-11 22:31N 37°46' W 009°03'611.7
2019-Jun-11 22:01N 37°40' W 009°03'611.3
2019-Jun-11 21:30N 37°34' W 009°03'1312.3
2019-Jun-11 20:29N 37°21' W 009°03'29 5.2
2019-Jun-11 14:51N 36°58' W 008°41'616.0
2019-Jun-11 14:29N 37°03' W 008°36'6 3.2
2019-Jun-11 12:40N 37°08' W 008°32'0 0.0
2019-Jun-11 09:15N 37°08' W 008°32'0 0.0
2019-Jun-11 06:40N 37°08' W 008°32'0 0.5
2019-Jun-11 06:23N 37°08' W 008°32'5 8.6
2019-Jun-11 05:46N 37°03' W 008°29'1512.6
2019-Jun-11 04:34N 36°58' W 008°11'1312.0
2019-Jun-11 03:26N 36°53' W 007°55'  
Track history (hours):
 
Tides and Currents Weather Stations Pressure Air Temp Water Temp Dewpoint Dewpoint Depression Visibility Wind Speed Wind Dir Waves Ship Positions

Seabourn Pride

Operator: Cunard Seabourn

Last reported at 2019-Jun-16 23:30 UTC. Time now 2019-Jun-17 19:32 UTC.
Position N 43°48' W 003°16'.

Length 134 m; draft 5.6 m.

Type: Ship. MMSI: 311084000.

Date/timePositionNaut miles runAvg speedWind from/ knotsBaromVisibWave heightAir tempDewpointWater temp
2019-Jun-16 23:30N 43°48' W 003°16'612.6
2019-Jun-16 23:00N 43°42' W 003°13'612.1
2019-Jun-16 22:30N 43°36' W 003°11'612.1
2019-Jun-16 22:00N 43°30' W 003°09'612.6
2019-Jun-16 21:30N 43°24' W 003°06'5 9.1
2019-Jun-16 21:00N 43°21' W 003°02'1 1.1
2019-Jun-16 20:30N 43°20' W 003°01'0 0.0
2019-Jun-16 20:00N 43°20' W 003°01'0 0.0
2019-Jun-16 19:30N 43°20' W 003°01'0 0.0
2019-Jun-16 19:00N 43°20' W 003°01'0 0.0
2019-Jun-16 18:30N 43°20' W 003°01'0 0.0
2019-Jun-16 18:00N 43°20' W 003°01'0 0.0
2019-Jun-16 17:30N 43°20' W 003°01'0 0.0
2019-Jun-16 17:00N 43°20' W 003°01'0 0.0
2019-Jun-16 16:30N 43°20' W 003°01'0 0.0
2019-Jun-16 16:00N 43°20' W 003°01'0 0.0
2019-Jun-16 15:30N 43°20' W 003°01'0 0.0
2019-Jun-16 15:00N 43°20' W 003°01'0 0.0
2019-Jun-16 14:30N 43°20' W 003°01'0 0.0
2019-Jun-16 14:00N 43°20' W 003°01'0 0.0
2019-Jun-16 13:30N 43°20' W 003°01'0 0.0
2019-Jun-16 13:00N 43°20' W 003°01'0 0.0
2019-Jun-16 12:30N 43°20' W 003°01'0 0.0
2019-Jun-16 12:00N 43°20' W 003°01'0 0.0
2019-Jun-16 11:30N 43°20' W 003°01'0 0.0
2019-Jun-16 11:00N 43°20' W 003°01'0 0.0
2019-Jun-16 10:30N 43°20' W 003°01'0 0.0
2019-Jun-16 10:01N 43°20' W 003°01'0 0.0
2019-Jun-16 09:31N 43°20' W 003°01'0 0.0
2019-Jun-16 09:01N 43°20' W 003°01'0 0.0
2019-Jun-16 08:31N 43°20' W 003°01'0 0.0
2019-Jun-16 08:01N 43°20' W 003°01'0 0.0
2019-Jun-16 07:31N 43°20' W 003°01'0 0.0
2019-Jun-16 07:01N 43°20' W 003°01'0 0.0
2019-Jun-16 06:31N 43°20' W 003°01'0 0.0
2019-Jun-16 06:01N 43°20' W 003°01'0 0.6
2019-Jun-16 05:30N 43°20' W 003°02'4 7.6
2019-Jun-16 05:00N 43°23' W 003°05'5 9.9
2019-Jun-16 04:30N 43°27' W 003°10'4 8.0
2019-Jun-16 04:00N 43°30' W 003°14'4 7.8
2019-Jun-16 03:30N 43°33' W 003°17'3 6.9
2019-Jun-16 03:00N 43°35' W 003°21'4 8.3
2019-Jun-16 02:30N 43°35' W 003°27'4 8.9
2019-Jun-16 02:00N 43°35' W 003°33'4 9.0
2019-Jun-16 01:30N 43°36' W 003°39'5 9.2
2019-Jun-16 01:00N 43°36' W 003°45'5 9.4
2019-Jun-16 00:31N 43°36' W 003°52'5 9.3
2019-Jun-16 00:00N 43°37' W 003°58'5 9.4
2019-Jun-15 23:30N 43°37' W 004°05'5 9.3
2019-Jun-15 23:00N 43°37' W 004°11'5 9.4
2019-Jun-15 22:30N 43°37' W 004°17'32 9.6
2019-Jun-15 19:12N 43°38' W 005°02'2 9.8
2019-Jun-15 19:00N 43°38' W 005°04'510.0
2019-Jun-15 18:28N 43°38' W 005°11'5 9.7
2019-Jun-15 17:54N 43°38' W 005°19'4 9.6
2019-Jun-15 17:30N 43°38' W 005°24'5 9.7
2019-Jun-15 17:00N 43°37' W 005°31'5 9.6
2019-Jun-15 16:30N 43°35' W 005°37'4 7.6
2019-Jun-15 16:00N 43°34' W 005°42'0 0.0
2019-Jun-15 15:30N 43°34' W 005°42'0 0.0
2019-Jun-15 15:00N 43°34' W 005°42'0 0.0
2019-Jun-15 14:30N 43°34' W 005°42'0 0.0
2019-Jun-15 13:50N 43°34' W 005°42'0 0.0
2019-Jun-15 13:30N 43°34' W 005°42'0 0.0
2019-Jun-15 13:00N 43°34' W 005°42'0 0.0
2019-Jun-15 12:27N 43°34' W 005°42'0 0.0
2019-Jun-15 12:00N 43°34' W 005°42'0 0.0
2019-Jun-15 11:30N 43°34' W 005°42'0 0.0
2019-Jun-15 11:00N 43°34' W 005°42'0 0.0
2019-Jun-15 10:30N 43°34' W 005°42'0 0.0
2019-Jun-15 09:58N 43°34' W 005°42'0 0.0
2019-Jun-15 09:30N 43°34' W 005°42'0 0.0
2019-Jun-15 08:56N 43°34' W 005°42'0 0.0
2019-Jun-15 08:27N 43°34' W 005°42'0 0.0
2019-Jun-15 07:46N 43°34' W 005°42'0 0.0
2019-Jun-15 07:28N 43°34' W 005°42'0 0.0
2019-Jun-15 06:56N 43°34' W 005°42'0 0.2
2019-Jun-15 06:30N 43°34' W 005°42'4 7.0
2019-Jun-15 05:59N 43°36' W 005°38'4 9.0
2019-Jun-15 05:30N 43°40' W 005°39'4 8.3
2019-Jun-15 05:00N 43°44' W 005°40'610.5
2019-Jun-15 04:28N 43°48' W 005°46'510.6
2019-Jun-15 04:00N 43°51' W 005°51'510.6
2019-Jun-15 03:30N 43°52' W 005°58'202 5.5
2019-Jun-13 14:48N 41°12' W 008°46'311.5
2019-Jun-13 14:31N 41°10' W 008°43'2 3.4
2019-Jun-13 14:00N 41°11' W 008°42'0 0.0
2019-Jun-13 13:28N 41°11' W 008°42'0 0.0
2019-Jun-13 12:58N 41°11' W 008°42'0 0.0
2019-Jun-13 12:27N 41°11' W 008°42'0 0.0
2019-Jun-13 11:57N 41°11' W 008°42'0 0.0
2019-Jun-13 11:30N 41°11' W 008°42'0 0.0
2019-Jun-13 10:57N 41°11' W 008°42'0 0.0
2019-Jun-13 10:28N 41°11' W 008°42'0 0.0
2019-Jun-13 09:59N 41°11' W 008°42'0 0.0
2019-Jun-13 09:30N 41°11' W 008°42'0 0.0
2019-Jun-13 08:59N 41°11' W 008°42'0 0.0
2019-Jun-13 08:30N 41°11' W 008°42'0 0.0
2019-Jun-13 08:00N 41°11' W 008°42'0 0.3
2019-Jun-13 07:30N 41°11' W 008°42'2 4.4
2019-Jun-13 07:00N 41°09' W 008°43'12011.5
2019-Jun-12 20:38N 39°19' W 009°45'212.1
2019-Jun-12 20:28N 39°17' W 009°45'612.0
2019-Jun-12 20:00N 39°12' W 009°44'611.8
2019-Jun-12 19:30N 39°06' W 009°44'612.1
2019-Jun-12 19:00N 38°60' W 009°43'611.9
2019-Jun-12 18:30N 38°54' W 009°43'713.4
2019-Jun-12 18:00N 38°47' W 009°42'713.2
2019-Jun-12 17:30N 38°41' W 009°42'510.6
2019-Jun-12 17:00N 38°37' W 009°37'714.6
2019-Jun-12 16:30N 38°36' W 009°28'815.1
2019-Jun-12 16:00N 38°40' W 009°19'713.3
2019-Jun-12 15:30N 38°41' W 009°11'3 6.3
2019-Jun-12 15:00N 38°43' W 009°07'0 0.0
2019-Jun-12 14:30N 38°43' W 009°07'0 0.0
2019-Jun-12 13:59N 38°43' W 009°07'0 0.0
2019-Jun-12 13:29N 38°43' W 009°07'0 0.0
2019-Jun-12 12:56N 38°43' W 009°07'0 0.0
2019-Jun-12 12:30N 38°43' W 009°07'0 0.0
2019-Jun-12 12:00N 38°43' W 009°07'0 0.0
2019-Jun-12 11:30N 38°43' W 009°07'0 0.0
2019-Jun-12 10:59N 38°43' W 009°07'0 0.0
2019-Jun-12 10:30N 38°43' W 009°07'0 0.0
2019-Jun-12 09:59N 38°43' W 009°07'0 0.0
2019-Jun-12 09:28N 38°43' W 009°07'0 0.0
2019-Jun-12 08:58N 38°43' W 009°07'0 0.0
2019-Jun-12 08:30N 38°43' W 009°07'0 0.0
2019-Jun-12 08:00N 38°43' W 009°07'0 0.0
2019-Jun-12 07:30N 38°43' W 009°07'0 0.0
2019-Jun-12 07:00N 38°43' W 009°07'0 0.0
2019-Jun-12 06:29N 38°43' W 009°07'0 0.0
2019-Jun-12 06:01N 38°43' W 009°07'0 0.3
2019-Jun-12 05:30N 38°43' W 009°07'5 9.7
2019-Jun-12 05:00N 38°41' W 009°13'4 7.6
2019-Jun-12 04:30N 38°41' W 009°18'4 8.0
2019-Jun-12 04:00N 38°38' W 009°21'4 8.8
2019-Jun-12 03:30N 38°33' W 009°21'4 8.7
2019-Jun-12 03:00N 38°29' W 009°21'9 8.8
2019-Jun-12 02:00N 38°22' W 009°15'510.2
2019-Jun-12 01:30N 38°19' W 009°09'611.3
2019-Jun-12 01:00N 38°16' W 009°03'611.5
2019-Jun-12 00:31N 38°10' W 009°03'612.8
2019-Jun-12 00:00N 38°04' W 009°03'612.3
2019-Jun-11 23:31N 37°57' W 009°03'612.0
2019-Jun-11 23:01N 37°51' W 009°03'611.8
2019-Jun-11 22:31N 37°46' W 009°03'611.7
2019-Jun-11 22:01N 37°40' W 009°03'611.3
2019-Jun-11 21:30N 37°34' W 009°03'1312.3
2019-Jun-11 20:29N 37°21' W 009°03'29 5.2
2019-Jun-11 14:51N 36°58' W 008°41'616.0
2019-Jun-11 14:29N 37°03' W 008°36'6 3.2
2019-Jun-11 12:40N 37°08' W 008°32'0 0.0
2019-Jun-11 09:15N 37°08' W 008°32'0 0.0
2019-Jun-11 06:40N 37°08' W 008°32'0 0.5
2019-Jun-11 06:23N 37°08' W 008°32'5 8.6
2019-Jun-11 05:46N 37°03' W 008°29'1512.6
2019-Jun-11 04:34N 36°58' W 008°11'1312.0
2019-Jun-11 03:26N 36°53' W 007°55'  

Dump ship's entire track history